createdAt,value
2022-09-13T00:00:15.883Z,0.00
2022-09-13T00:01:16.098Z,0.00
2022-09-13T00:02:15.918Z,0.00
2022-09-13T00:03:15.854Z,0.00
2022-09-13T00:04:15.946Z,0.00
2022-09-13T00:05:15.826Z,0.00
2022-09-13T00:06:15.811Z,0.00
2022-09-13T00:07:15.805Z,0.00
2022-09-13T00:08:15.805Z,0.00
2022-09-13T00:09:15.782Z,0.00
2022-09-13T00:10:15.765Z,0.00
2022-09-13T00:11:15.759Z,0.00
2022-09-13T00:12:15.754Z,0.00
2022-09-13T00:13:15.767Z,0.00
2022-09-13T00:14:15.728Z,0.00
2022-09-13T00:15:15.707Z,0.00
2022-09-13T00:16:15.817Z,0.00
2022-09-13T00:17:15.693Z,0.00
2022-09-13T00:18:15.698Z,0.00
2022-09-13T00:19:15.672Z,0.00
2022-09-13T00:20:15.678Z,0.00
2022-09-13T00:21:15.641Z,0.00
2022-09-13T00:22:15.631Z,0.00
2022-09-13T00:23:15.644Z,0.00
2022-09-13T00:24:15.617Z,0.00
2022-09-13T00:25:15.614Z,0.00
2022-09-13T00:26:15.588Z,0.00
2022-09-13T00:27:15.577Z,0.00
2022-09-13T00:28:15.579Z,0.00
2022-09-13T00:29:15.554Z,0.00
2022-09-13T00:30:15.550Z,0.00
2022-09-13T00:31:15.619Z,0.00
2022-09-13T00:32:15.527Z,0.00
2022-09-13T00:33:15.524Z,0.00
2022-09-13T00:34:15.498Z,0.00
2022-09-13T00:35:15.490Z,0.00
2022-09-13T00:36:15.544Z,0.00
2022-09-13T00:37:15.466Z,0.00
2022-09-13T00:38:15.475Z,0.00
2022-09-13T00:39:15.450Z,0.00
2022-09-13T00:40:15.654Z,0.00
2022-09-13T00:41:15.419Z,0.00
2022-09-13T00:42:15.412Z,0.00
2022-09-13T00:43:15.411Z,0.00
2022-09-13T00:44:15.391Z,0.00
2022-09-13T00:45:15.374Z,0.00
2022-09-13T00:46:15.421Z,0.00
2022-09-13T00:47:15.350Z,0.00
2022-09-13T00:48:15.357Z,0.00
2022-09-13T00:49:15.333Z,0.00
2022-09-13T00:50:15.326Z,0.00
2022-09-13T00:51:15.319Z,0.00
2022-09-13T00:52:15.319Z,0.00
2022-09-13T00:53:15.311Z,0.00
2022-09-13T00:54:15.288Z,0.00
2022-09-13T00:55:15.271Z,0.00
2022-09-13T00:56:15.260Z,0.00
2022-09-13T00:57:15.243Z,0.00
2022-09-13T00:58:15.251Z,0.00
2022-09-13T00:59:15.228Z,0.00
2022-09-13T01:00:15.209Z,0.00
2022-09-13T01:01:15.262Z,0.00
2022-09-13T01:02:15.231Z,0.00
2022-09-13T01:03:15.202Z,0.00
2022-09-13T01:04:15.166Z,0.00
2022-09-13T01:05:15.162Z,0.00
2022-09-13T01:06:15.144Z,0.00
2022-09-13T01:07:15.152Z,0.00
2022-09-13T01:08:15.167Z,0.00
2022-09-13T01:09:15.113Z,0.00
2022-09-13T01:10:15.101Z,0.00
2022-09-13T01:11:15.100Z,0.00
2022-09-13T01:12:15.081Z,0.00
2022-09-13T01:13:15.177Z,0.00
2022-09-13T01:14:15.059Z,0.00
2022-09-13T01:15:15.053Z,0.00
2022-09-13T01:16:15.050Z,0.00
2022-09-13T01:17:15.020Z,0.00
2022-09-13T01:18:15.020Z,0.00
2022-09-13T01:19:15.005Z,0.00
2022-09-13T01:20:14.991Z,0.00
2022-09-13T01:21:14.985Z,0.00
2022-09-13T01:22:14.969Z,0.00
2022-09-13T01:23:14.970Z,0.00
2022-09-13T01:24:15.048Z,0.00
2022-09-13T01:25:14.939Z,0.00
2022-09-13T01:26:15.869Z,0.00
2022-09-13T01:27:14.918Z,0.00
2022-09-13T01:28:14.917Z,0.00
2022-09-13T01:29:14.886Z,0.00
2022-09-13T01:30:14.874Z,0.00
2022-09-13T01:31:14.967Z,0.00
2022-09-13T01:32:14.851Z,0.00
2022-09-13T01:33:14.871Z,0.00
2022-09-13T01:34:14.828Z,0.00
2022-09-13T01:35:14.825Z,0.00
2022-09-13T01:36:14.808Z,0.00
2022-09-13T01:37:14.803Z,0.00
2022-09-13T01:38:14.797Z,0.00
2022-09-13T01:39:14.785Z,0.00
2022-09-13T01:40:14.991Z,0.00
2022-09-13T01:41:14.752Z,0.00
2022-09-13T01:42:14.747Z,0.00
2022-09-13T01:43:14.751Z,0.00
2022-09-13T01:44:14.728Z,0.00
2022-09-13T01:45:14.714Z,0.00
2022-09-13T01:46:14.731Z,0.00
2022-09-13T01:47:14.695Z,0.00
2022-09-13T01:48:14.693Z,0.00
2022-09-13T01:49:14.671Z,0.00
2022-09-13T01:50:14.652Z,0.00
2022-09-13T01:51:14.647Z,0.00
2022-09-13T01:52:14.636Z,0.00
2022-09-13T01:53:14.634Z,0.00
2022-09-13T01:54:14.614Z,0.00
2022-09-13T01:55:14.597Z,0.00
2022-09-13T01:56:14.614Z,0.00
2022-09-13T01:57:14.578Z,0.00
2022-09-13T01:58:14.586Z,0.00
2022-09-13T01:59:14.552Z,0.00
2022-09-13T02:00:14.537Z,0.00
2022-09-13T02:01:14.589Z,0.00
2022-09-13T02:02:14.584Z,0.00
2022-09-13T02:03:14.525Z,0.00
2022-09-13T02:04:14.498Z,0.00
2022-09-13T02:05:14.484Z,0.00
2022-09-13T02:06:14.474Z,0.00
2022-09-13T02:07:14.461Z,0.00
2022-09-13T02:08:14.468Z,0.00
2022-09-13T02:09:16.662Z,0.00
2022-09-13T02:10:15.430Z,0.00
2022-09-13T02:11:14.413Z,0.00
2022-09-13T02:12:14.427Z,0.00
2022-09-13T02:13:14.421Z,0.00
2022-09-13T02:14:14.376Z,0.00
2022-09-13T02:15:14.374Z,0.00
2022-09-13T02:16:14.396Z,0.00
2022-09-13T02:17:14.351Z,0.00
2022-09-13T02:18:14.346Z,0.00
2022-09-13T02:19:14.346Z,0.00
2022-09-13T02:20:14.310Z,0.00
2022-09-13T02:21:14.300Z,0.00
2022-09-13T02:22:14.294Z,0.00
2022-09-13T02:23:14.292Z,0.00
2022-09-13T02:24:14.269Z,0.00
2022-09-13T02:25:14.254Z,0.00
2022-09-13T02:26:14.246Z,0.00
2022-09-13T02:27:14.229Z,0.00
2022-09-13T02:28:14.254Z,0.00
2022-09-13T02:29:14.212Z,0.00
2022-09-13T02:30:14.201Z,0.00
2022-09-13T02:31:14.253Z,0.00
2022-09-13T02:32:14.171Z,0.00
2022-09-13T02:33:14.186Z,0.00
2022-09-13T02:34:14.158Z,0.00
2022-09-13T02:35:14.145Z,0.00
2022-09-13T02:36:14.134Z,0.00
2022-09-13T02:37:14.124Z,0.00
2022-09-13T02:38:14.116Z,0.00
2022-09-13T02:39:14.093Z,0.00
2022-09-13T02:40:14.158Z,0.00
2022-09-13T02:41:14.071Z,0.00
2022-09-13T02:42:14.061Z,0.00
2022-09-13T02:43:14.059Z,0.00
2022-09-13T02:44:14.056Z,0.00
2022-09-13T02:45:14.026Z,0.00
2022-09-13T02:46:14.014Z,0.00
2022-09-13T02:47:14.004Z,0.00
2022-09-13T02:48:14.012Z,0.00
2022-09-13T02:49:13.980Z,0.00
2022-09-13T02:50:13.979Z,0.00
2022-09-13T02:51:13.963Z,0.00
2022-09-13T02:52:13.954Z,0.00
2022-09-13T02:53:13.947Z,0.00
2022-09-13T02:54:13.930Z,0.00
2022-09-13T02:55:13.922Z,0.00
2022-09-13T02:56:13.907Z,0.00
2022-09-13T02:57:13.898Z,0.00
2022-09-13T02:58:13.901Z,0.00
2022-09-13T02:59:13.877Z,0.00
2022-09-13T03:00:13.875Z,0.00
2022-09-13T03:01:13.944Z,0.00
2022-09-13T03:02:13.905Z,0.00
2022-09-13T03:03:13.844Z,0.00
2022-09-13T03:04:13.811Z,0.00
2022-09-13T03:05:13.801Z,0.00
2022-09-13T03:06:13.798Z,0.00
2022-09-13T03:07:13.786Z,0.00
2022-09-13T03:08:13.775Z,0.00
2022-09-13T03:09:13.767Z,0.00
2022-09-13T03:10:13.771Z,0.00
2022-09-13T03:11:13.741Z,0.00
2022-09-13T03:12:13.724Z,0.00
2022-09-13T03:13:13.712Z,0.00
2022-09-13T03:14:13.723Z,0.00
2022-09-13T03:15:13.697Z,0.00
2022-09-13T03:16:13.801Z,0.00
2022-09-13T03:17:13.665Z,0.00
2022-09-13T03:18:13.661Z,0.00
2022-09-13T03:19:13.664Z,0.00
2022-09-13T03:20:13.629Z,0.00
2022-09-13T03:21:13.626Z,0.00
2022-09-13T03:22:13.613Z,0.00
2022-09-13T03:23:13.603Z,0.00
2022-09-13T03:24:13.598Z,0.00
2022-09-13T03:25:13.582Z,0.00
2022-09-13T03:26:13.571Z,0.00
2022-09-13T03:27:13.560Z,0.00
2022-09-13T03:28:13.540Z,0.00
2022-09-13T03:29:13.551Z,0.00
2022-09-13T03:30:13.532Z,0.00
2022-09-13T03:31:14.056Z,0.00
2022-09-13T03:32:13.572Z,0.00
2022-09-13T03:33:13.490Z,0.00
2022-09-13T03:34:13.489Z,0.00
2022-09-13T03:35:13.467Z,0.00
2022-09-13T03:36:13.464Z,0.00
2022-09-13T03:37:13.447Z,0.00
2022-09-13T03:38:13.433Z,0.00
2022-09-13T03:39:15.231Z,0.00
2022-09-13T03:40:13.433Z,0.00
2022-09-13T03:41:13.393Z,0.00
2022-09-13T03:42:13.405Z,0.00
2022-09-13T03:43:13.374Z,0.00
2022-09-13T03:44:13.375Z,0.00
2022-09-13T03:45:13.354Z,0.00
2022-09-13T03:46:13.403Z,0.00
2022-09-13T03:47:13.325Z,0.00
2022-09-13T03:48:13.344Z,0.00
2022-09-13T03:49:13.315Z,0.00
2022-09-13T03:50:13.319Z,0.00
2022-09-13T03:51:13.284Z,0.00
2022-09-13T03:52:13.276Z,0.00
2022-09-13T03:53:13.262Z,0.00
2022-09-13T03:54:13.270Z,0.00
2022-09-13T03:55:13.238Z,0.00
2022-09-13T03:56:13.219Z,0.00
2022-09-13T03:57:13.216Z,0.00
2022-09-13T03:58:13.199Z,0.00
2022-09-13T03:59:13.210Z,0.00
2022-09-13T04:00:13.181Z,0.00
2022-09-13T04:01:13.254Z,0.00
2022-09-13T04:02:13.204Z,0.00
2022-09-13T04:03:13.139Z,0.00
2022-09-13T04:04:13.252Z,0.00
2022-09-13T04:05:13.125Z,0.00
2022-09-13T04:06:13.115Z,0.00
2022-09-13T04:07:13.118Z,0.00
2022-09-13T04:08:13.092Z,0.00
2022-09-13T04:09:13.101Z,0.00
2022-09-13T04:10:13.944Z,0.00
2022-09-13T04:11:13.055Z,0.00
2022-09-13T04:12:13.040Z,0.00
2022-09-13T04:13:13.034Z,0.00
2022-09-13T04:14:13.055Z,0.00
2022-09-13T04:15:13.023Z,0.00
2022-09-13T04:16:13.095Z,0.00
2022-09-13T04:17:13.004Z,0.00
2022-09-13T04:18:13.035Z,0.00
2022-09-13T04:19:12.978Z,0.00
2022-09-13T04:20:13.064Z,0.00
2022-09-13T04:21:12.946Z,0.00
2022-09-13T04:22:12.925Z,0.00
2022-09-13T04:23:12.924Z,0.00
2022-09-13T04:24:12.925Z,0.00
2022-09-13T04:25:12.901Z,0.00
2022-09-13T04:26:12.889Z,0.00
2022-09-13T04:27:12.875Z,0.00
2022-09-13T04:28:12.858Z,0.00
2022-09-13T04:29:12.867Z,0.00
2022-09-13T04:30:12.835Z,0.00
2022-09-13T04:31:12.865Z,0.00
2022-09-13T04:32:12.819Z,0.00
2022-09-13T04:33:12.808Z,0.00
2022-09-13T04:34:12.800Z,0.00
2022-09-13T04:35:12.778Z,0.00
2022-09-13T04:36:12.881Z,0.00
2022-09-13T04:37:12.761Z,0.00
2022-09-13T04:38:12.752Z,0.00
2022-09-13T04:39:12.759Z,0.00
2022-09-13T04:40:12.759Z,0.00
2022-09-13T04:41:12.717Z,0.00
2022-09-13T04:42:12.705Z,0.00
2022-09-13T04:43:12.689Z,0.00
2022-09-13T04:44:12.699Z,0.00
2022-09-13T04:45:12.670Z,4.00
2022-09-13T04:46:12.738Z,4.00
2022-09-13T04:47:12.647Z,4.00
2022-09-13T04:48:12.636Z,0.00
2022-09-13T04:49:12.640Z,4.00
2022-09-13T04:50:12.617Z,4.00
2022-09-13T04:51:12.597Z,4.00
2022-09-13T04:52:12.607Z,4.00
2022-09-13T04:53:12.579Z,4.00
2022-09-13T04:54:15.654Z,8.00
2022-09-13T04:55:12.550Z,8.00
2022-09-13T04:56:12.534Z,4.00
2022-09-13T04:57:12.522Z,8.00
2022-09-13T04:58:12.519Z,8.00
2022-09-13T04:59:12.531Z,12.00
2022-09-13T05:00:12.502Z,8.00
2022-09-13T05:01:12.548Z,12.00
2022-09-13T05:02:12.492Z,12.00
2022-09-13T05:03:12.467Z,12.00
2022-09-13T05:04:12.466Z,16.00
2022-09-13T05:05:12.439Z,16.00
2022-09-13T05:06:12.432Z,16.00
2022-09-13T05:07:12.431Z,20.00
2022-09-13T05:08:12.513Z,20.00
2022-09-13T05:09:12.414Z,24.00
2022-09-13T05:10:16.322Z,28.00
2022-09-13T05:11:13.367Z,32.00
2022-09-13T05:12:12.363Z,36.00
2022-09-13T05:13:12.354Z,36.00
2022-09-13T05:14:12.362Z,40.00
2022-09-13T05:15:12.323Z,40.00
2022-09-13T05:16:12.345Z,44.00
2022-09-13T05:17:12.308Z,48.00
2022-09-13T05:18:12.291Z,48.00
2022-09-13T05:19:12.301Z,52.00
2022-09-13T05:20:12.278Z,56.00
2022-09-13T05:21:12.267Z,56.00
2022-09-13T05:22:12.247Z,64.00
2022-09-13T05:23:12.240Z,68.00
2022-09-13T05:24:12.349Z,72.00
2022-09-13T05:25:12.208Z,80.00
2022-09-13T05:26:12.206Z,96.00
2022-09-13T05:27:12.192Z,100.00
2022-09-13T05:28:12.186Z,104.00
2022-09-13T05:29:12.263Z,108.00
2022-09-13T05:30:12.151Z,108.00
2022-09-13T05:31:12.200Z,108.00
2022-09-13T05:32:12.135Z,104.00
2022-09-13T05:33:12.118Z,100.00
2022-09-13T05:34:12.127Z,104.00
2022-09-13T05:35:12.106Z,112.00
2022-09-13T05:36:12.084Z,104.00
2022-09-13T05:37:12.078Z,104.00
2022-09-13T05:38:12.071Z,108.00
2022-09-13T05:39:29.632Z,108.00
2022-09-13T05:40:13.171Z,108.00
2022-09-13T05:41:12.028Z,108.00
2022-09-13T05:42:12.020Z,108.00
2022-09-13T05:43:12.004Z,100.00
2022-09-13T05:44:13.568Z,88.00
2022-09-13T05:45:12.008Z,88.00
2022-09-13T05:46:12.082Z,84.00
2022-09-13T05:47:11.988Z,88.00
2022-09-13T05:48:11.944Z,92.00
2022-09-13T05:49:11.958Z,92.00
2022-09-13T05:50:22.907Z,104.00
2022-09-13T05:51:12.915Z,124.00
2022-09-13T05:52:11.901Z,160.00
2022-09-13T05:53:11.909Z,208.00
2022-09-13T05:54:11.890Z,244.00
2022-09-13T05:55:11.871Z,288.00
2022-09-13T05:56:16.331Z,324.00
2022-09-13T05:57:11.848Z,340.00
2022-09-13T05:58:11.836Z,344.00
2022-09-13T05:59:11.834Z,364.00
2022-09-13T06:00:11.816Z,396.00
2022-09-13T06:01:11.796Z,444.00
2022-09-13T06:02:11.829Z,488.00
2022-09-13T06:03:11.779Z,520.00
2022-09-13T06:04:11.780Z,536.00
2022-09-13T06:05:11.749Z,556.00
2022-09-13T06:06:11.747Z,568.00
2022-09-13T06:07:11.737Z,588.00
2022-09-13T06:08:11.727Z,624.00
2022-09-13T06:09:11.720Z,660.00
2022-09-13T06:10:11.702Z,692.00
2022-09-13T06:11:11.690Z,748.00
2022-09-13T06:12:11.697Z,800.00
2022-09-13T06:13:11.659Z,856.00
2022-09-13T06:14:11.665Z,912.00
2022-09-13T06:15:11.685Z,912.00
2022-09-13T06:16:11.714Z,896.00
2022-09-13T06:17:11.623Z,876.00
2022-09-13T06:18:11.611Z,840.00
2022-09-13T06:19:11.619Z,820.00
2022-09-13T06:20:11.581Z,836.00
2022-09-13T06:21:11.571Z,852.00
2022-09-13T06:22:11.567Z,888.00
2022-09-13T06:23:11.559Z,908.00
2022-09-13T06:24:11.542Z,900.00
2022-09-13T06:25:11.542Z,884.00
2022-09-13T06:26:11.590Z,872.00
2022-09-13T06:27:12.499Z,872.00
2022-09-13T06:28:11.509Z,872.00
2022-09-13T06:29:11.501Z,872.00
2022-09-13T06:30:11.487Z,880.00
2022-09-13T06:31:11.570Z,904.00
2022-09-13T06:32:11.443Z,888.00
2022-09-13T06:33:11.498Z,864.00
2022-09-13T06:34:11.430Z,892.00
2022-09-13T06:35:11.430Z,908.00
2022-09-13T06:36:11.410Z,896.00
2022-09-13T06:37:11.393Z,888.00
2022-09-13T06:38:11.382Z,896.00
2022-09-13T06:39:11.364Z,888.00
2022-09-13T06:40:11.488Z,880.00
2022-09-13T06:41:11.357Z,864.00
2022-09-13T06:42:11.332Z,888.00
2022-09-13T06:43:11.346Z,920.00
2022-09-13T06:44:11.340Z,940.00
2022-09-13T06:45:11.326Z,932.00
2022-09-13T06:46:11.340Z,924.00
2022-09-13T06:47:11.279Z,916.00
2022-09-13T06:48:11.271Z,964.00
2022-09-13T06:49:11.249Z,1020.00
2022-09-13T06:50:11.245Z,1096.00
2022-09-13T06:51:11.251Z,1156.00
2022-09-13T06:52:11.228Z,1164.00
2022-09-13T06:53:11.205Z,1192.00
2022-09-13T06:54:11.200Z,1228.00
2022-09-13T06:55:12.811Z,1296.00
2022-09-13T06:56:11.185Z,1380.00
2022-09-13T06:57:11.163Z,1472.00
2022-09-13T06:58:11.169Z,1584.00
2022-09-13T06:59:11.137Z,1696.00
2022-09-13T07:00:11.155Z,1812.00
2022-09-13T07:01:11.168Z,1892.00
2022-09-13T07:02:11.141Z,1880.00
2022-09-13T07:03:11.108Z,1836.00
2022-09-13T07:04:11.097Z,1840.00
2022-09-13T07:05:11.073Z,1884.00
2022-09-13T07:06:11.070Z,1868.00
2022-09-13T07:07:11.046Z,1844.00
2022-09-13T07:08:11.035Z,1832.00
2022-09-13T07:09:11.032Z,1876.00
2022-09-13T07:10:11.016Z,1860.00
2022-09-13T07:11:11.016Z,1788.00
2022-09-13T07:12:10.998Z,1772.00
2022-09-13T07:13:10.981Z,1776.00
2022-09-13T07:14:10.966Z,1796.00
2022-09-13T07:15:10.954Z,1816.00
2022-09-13T07:16:11.157Z,1892.00
2022-09-13T07:17:10.933Z,1976.00
2022-09-13T07:18:10.925Z,2084.00
2022-09-13T07:19:10.918Z,2192.00
2022-09-13T07:20:10.912Z,2296.00
2022-09-13T07:21:10.905Z,2400.00
2022-09-13T07:22:10.881Z,2528.00
2022-09-13T07:23:15.166Z,2628.00
2022-09-13T07:24:10.850Z,2720.00
2022-09-13T07:25:10.846Z,2780.00
2022-09-13T07:26:10.841Z,2848.00
2022-09-13T07:27:10.817Z,2952.00
2022-09-13T07:28:10.806Z,2996.00
2022-09-13T07:29:10.794Z,3104.00
2022-09-13T07:30:10.832Z,3200.00
2022-09-13T07:31:10.833Z,3260.00
2022-09-13T07:32:10.844Z,3312.00
2022-09-13T07:33:10.748Z,3388.00
2022-09-13T07:34:10.745Z,3392.00
2022-09-13T07:35:10.723Z,3396.00
2022-09-13T07:36:10.729Z,3412.00
2022-09-13T07:37:10.701Z,3472.00
2022-09-13T07:38:10.690Z,3508.00
2022-09-13T07:39:15.001Z,3560.00
2022-09-13T07:40:11.841Z,3484.00
2022-09-13T07:41:10.679Z,3556.00
2022-09-13T07:42:10.646Z,3600.00
2022-09-13T07:43:10.742Z,3664.00
2022-09-13T07:44:10.632Z,3708.00
2022-09-13T07:45:10.615Z,3684.00
2022-09-13T07:46:10.719Z,3864.00
2022-09-13T07:47:10.602Z,3800.00
2022-09-13T07:48:10.616Z,3776.00
2022-09-13T07:49:10.570Z,3824.00
2022-09-13T07:50:10.567Z,3840.00
2022-09-13T07:51:10.557Z,3828.00
2022-09-13T07:52:10.538Z,3824.00
2022-09-13T07:53:10.525Z,3828.00
2022-09-13T07:54:10.517Z,3860.00
2022-09-13T07:55:10.514Z,3792.00
2022-09-13T07:56:10.514Z,3700.00
2022-09-13T07:57:10.488Z,3608.00
2022-09-13T07:58:10.479Z,3564.00
2022-09-13T07:59:10.471Z,3540.00
2022-09-13T08:00:10.459Z,3400.00
2022-09-13T08:01:10.488Z,3360.00
2022-09-13T08:02:10.492Z,3340.00
2022-09-13T08:03:10.434Z,3328.00
2022-09-13T08:04:10.431Z,3360.00
2022-09-13T08:05:10.403Z,3492.00
2022-09-13T08:06:10.449Z,3752.00
2022-09-13T08:07:10.393Z,3956.00
2022-09-13T08:08:10.359Z,4112.00
2022-09-13T08:09:10.353Z,4220.00
2022-09-13T08:10:10.335Z,4372.00
2022-09-13T08:11:10.339Z,4608.00
2022-09-13T08:12:10.326Z,4660.00
2022-09-13T08:13:10.311Z,4796.00
2022-09-13T08:14:10.298Z,4892.00
2022-09-13T08:15:10.287Z,4904.00
2022-09-13T08:16:10.345Z,4620.00
2022-09-13T08:17:10.264Z,4488.00
2022-09-13T08:18:10.262Z,4528.00
2022-09-13T08:19:11.298Z,4560.00
2022-09-13T08:20:10.623Z,4640.00
2022-09-13T08:21:10.318Z,4744.00
2022-09-13T08:22:10.297Z,4888.00
2022-09-13T08:23:10.236Z,5100.00
2022-09-13T08:24:10.292Z,5200.00
2022-09-13T08:25:10.214Z,5216.00
2022-09-13T08:26:10.232Z,5168.00
2022-09-13T08:27:10.190Z,5176.00
2022-09-13T08:28:10.190Z,4980.00
2022-09-13T08:29:10.131Z,5244.00
2022-09-13T08:30:10.152Z,5428.00
2022-09-13T08:31:10.183Z,5616.00
2022-09-13T08:32:10.098Z,5488.00
2022-09-13T08:33:10.081Z,5436.00
2022-09-13T08:34:10.096Z,5508.00
2022-09-13T08:35:10.088Z,5460.00
2022-09-13T08:36:10.209Z,5456.00
2022-09-13T08:37:10.092Z,5528.00
2022-09-13T08:38:10.059Z,5672.00
2022-09-13T08:39:10.096Z,5868.00
2022-09-13T08:40:10.127Z,5780.00
2022-09-13T08:41:10.086Z,5984.00
2022-09-13T08:42:10.004Z,5764.00
2022-09-13T08:43:09.969Z,5568.00
2022-09-13T08:44:09.997Z,5516.00
2022-09-13T08:45:10.003Z,5508.00
2022-09-13T08:46:10.081Z,5808.00
2022-09-13T08:47:09.980Z,5576.00
2022-09-13T08:48:09.953Z,5576.00
2022-09-13T08:49:14.154Z,5424.00
2022-09-13T08:50:10.937Z,5476.00
2022-09-13T08:51:09.983Z,5628.00
2022-09-13T08:52:10.044Z,5812.00
2022-09-13T08:53:09.895Z,6120.00
2022-09-13T08:54:09.906Z,6836.00
2022-09-13T08:55:09.888Z,7180.00
2022-09-13T08:56:09.948Z,7364.00
2022-09-13T08:57:09.854Z,6896.00
2022-09-13T08:58:09.856Z,6428.00
2022-09-13T08:59:09.874Z,6240.00
2022-09-13T09:00:09.825Z,5940.00
2022-09-13T09:01:10.002Z,5832.00
2022-09-13T09:02:09.855Z,6352.00
2022-09-13T09:03:09.811Z,5920.00
2022-09-13T09:04:09.810Z,7148.00
2022-09-13T09:05:09.784Z,7544.00
2022-09-13T09:06:09.883Z,7668.00
2022-09-13T09:07:09.765Z,7788.00
2022-09-13T09:08:09.823Z,8040.00
2022-09-13T09:09:09.764Z,7756.00
2022-09-13T09:10:09.698Z,7672.00
2022-09-13T09:11:09.857Z,7312.00
2022-09-13T09:12:09.715Z,7324.00
2022-09-13T09:13:09.728Z,7884.00
2022-09-13T09:14:09.683Z,7776.00
2022-09-13T09:15:09.665Z,7484.00
2022-09-13T09:16:09.806Z,6964.00
2022-09-13T09:17:09.622Z,6888.00
2022-09-13T09:18:09.650Z,7552.00
2022-09-13T09:19:09.617Z,7220.00
2022-09-13T09:20:09.602Z,7768.00
2022-09-13T09:21:09.657Z,8172.00
2022-09-13T09:22:09.593Z,8040.00
2022-09-13T09:23:09.587Z,8240.00
2022-09-13T09:24:09.741Z,7280.00
2022-09-13T09:25:10.113Z,7560.00
2022-09-13T09:26:09.600Z,8392.00
2022-09-13T09:27:09.547Z,8664.00
2022-09-13T09:28:09.533Z,8464.00
2022-09-13T09:29:09.516Z,7884.00
2022-09-13T09:30:09.461Z,7680.00
2022-09-13T09:31:09.564Z,7204.00
2022-09-13T09:32:09.450Z,6680.00
2022-09-13T09:33:09.422Z,7696.00
2022-09-13T09:34:09.418Z,7064.00
2022-09-13T09:35:09.408Z,6900.00
2022-09-13T09:36:09.402Z,6532.00
2022-09-13T09:37:09.380Z,6528.00
2022-09-13T09:38:09.378Z,6432.00
2022-09-13T09:39:09.357Z,6644.00
2022-09-13T09:40:09.484Z,6540.00
2022-09-13T09:41:09.359Z,7028.00
2022-09-13T09:42:09.333Z,7120.00
2022-09-13T09:43:09.319Z,7412.00
2022-09-13T09:44:09.309Z,7632.00
2022-09-13T09:45:09.296Z,7756.00
2022-09-13T09:46:09.325Z,7760.00
2022-09-13T09:47:09.270Z,7812.00
2022-09-13T09:48:09.263Z,7564.00
2022-09-13T09:49:09.257Z,7584.00
2022-09-13T09:50:09.250Z,7260.00
2022-09-13T09:51:09.257Z,7796.00
2022-09-13T09:52:09.215Z,7892.00
2022-09-13T09:53:09.205Z,7884.00
2022-09-13T09:54:09.200Z,7904.00
2022-09-13T09:55:09.193Z,8020.00
2022-09-13T09:56:09.233Z,8076.00
2022-09-13T09:57:09.187Z,8168.00
2022-09-13T09:58:09.157Z,8348.00
2022-09-13T09:59:09.146Z,8444.00
2022-09-13T10:00:09.129Z,8440.00
2022-09-13T10:01:11.355Z,8304.00
2022-09-13T10:02:09.145Z,8424.00
2022-09-13T10:03:09.105Z,8492.00
2022-09-13T10:04:09.093Z,8540.00
2022-09-13T10:05:09.083Z,8508.00
2022-09-13T10:06:09.082Z,8556.00
2022-09-13T10:07:12.514Z,8432.00
2022-09-13T10:08:10.054Z,9000.00
2022-09-13T10:09:09.037Z,9004.00
2022-09-13T10:10:09.149Z,9036.00
2022-09-13T10:11:09.030Z,9056.00
2022-09-13T10:12:09.014Z,9492.00
2022-09-13T10:13:09.003Z,9200.00
2022-09-13T10:14:09.002Z,8864.00
2022-09-13T10:15:08.969Z,8488.00
2022-09-13T10:16:08.976Z,8456.00
2022-09-13T10:17:08.943Z,8696.00
2022-09-13T10:18:26.426Z,8160.00
2022-09-13T10:19:11.692Z,8084.00
2022-09-13T10:20:08.909Z,8000.00
2022-09-13T10:21:08.925Z,7392.00
2022-09-13T10:22:08.895Z,7608.00
2022-09-13T10:23:08.879Z,7592.00
2022-09-13T10:24:08.888Z,7236.00
2022-09-13T10:25:08.865Z,7156.00
2022-09-13T10:26:08.866Z,7052.00
2022-09-13T10:27:08.845Z,7216.00
2022-09-13T10:28:08.861Z,6908.00
2022-09-13T10:29:08.838Z,6668.00
2022-09-13T10:30:08.809Z,6636.00
2022-09-13T10:31:08.854Z,6480.00
2022-09-13T10:32:08.781Z,7264.00
2022-09-13T10:33:08.777Z,7180.00
2022-09-13T10:34:08.768Z,6580.00
2022-09-13T10:35:08.749Z,5588.00
2022-09-13T10:36:08.764Z,5116.00
2022-09-13T10:37:08.747Z,4816.00
2022-09-13T10:38:08.726Z,5188.00
2022-09-13T10:39:08.715Z,5236.00
2022-09-13T10:40:08.826Z,5428.00
2022-09-13T10:41:10.625Z,5396.00
2022-09-13T10:42:08.678Z,5604.00
2022-09-13T10:43:08.666Z,5280.00
2022-09-13T10:44:09.829Z,5368.00
2022-09-13T10:45:08.645Z,5460.00
2022-09-13T10:46:08.802Z,5672.00
2022-09-13T10:47:08.657Z,5444.00
2022-09-13T10:48:08.608Z,5252.00
2022-09-13T10:49:08.607Z,5108.00
2022-09-13T10:50:08.613Z,5284.00
2022-09-13T10:51:08.576Z,5384.00
2022-09-13T10:52:12.619Z,5264.00
2022-09-13T10:53:09.554Z,5200.00
2022-09-13T10:54:08.550Z,4940.00
2022-09-13T10:55:08.534Z,4876.00
2022-09-13T10:56:08.738Z,4876.00
2022-09-13T10:57:08.518Z,4848.00
2022-09-13T10:58:08.501Z,4892.00
2022-09-13T10:59:08.505Z,5268.00
2022-09-13T11:00:08.580Z,5424.00
2022-09-13T11:01:08.528Z,5128.00
2022-09-13T11:02:08.468Z,5412.00
2022-09-13T11:03:08.459Z,5452.00
2022-09-13T11:04:08.497Z,5660.00
2022-09-13T11:05:08.430Z,5848.00
2022-09-13T11:06:08.420Z,5868.00
2022-09-13T11:07:08.420Z,5672.00
2022-09-13T11:08:08.392Z,5788.00
2022-09-13T11:09:08.393Z,5860.00
2022-09-13T11:10:08.372Z,5812.00
2022-09-13T11:11:08.375Z,6000.00
2022-09-13T11:12:08.369Z,6152.00
2022-09-13T11:13:08.338Z,6296.00
2022-09-13T11:14:08.335Z,6348.00
2022-09-13T11:15:08.326Z,6192.00
2022-09-13T11:16:08.457Z,6248.00
2022-09-13T11:17:08.313Z,6440.00
2022-09-13T11:18:08.299Z,6340.00
2022-09-13T11:19:08.276Z,6312.00
2022-09-13T11:20:08.269Z,6320.00
2022-09-13T11:21:08.259Z,6308.00
2022-09-13T11:22:08.257Z,6596.00
2022-09-13T11:23:08.256Z,6960.00
2022-09-13T11:24:08.227Z,6976.00
2022-09-13T11:25:08.208Z,6544.00
2022-09-13T11:26:08.200Z,5792.00
2022-09-13T11:27:08.191Z,6368.00
2022-09-13T11:28:08.199Z,6460.00
2022-09-13T11:29:08.170Z,6536.00
2022-09-13T11:30:08.155Z,5756.00
2022-09-13T11:31:08.143Z,5960.00
2022-09-13T11:32:08.211Z,6388.00
2022-09-13T11:33:08.137Z,7212.00
2022-09-13T11:34:08.123Z,5540.00
2022-09-13T11:35:08.117Z,5620.00
2022-09-13T11:36:08.099Z,6060.00
2022-09-13T11:37:08.098Z,4956.00
2022-09-13T11:38:08.090Z,4784.00
2022-09-13T11:39:08.065Z,4576.00
2022-09-13T11:40:08.115Z,4568.00
2022-09-13T11:41:08.053Z,5304.00
2022-09-13T11:42:08.031Z,8076.00
2022-09-13T11:43:08.029Z,9304.00
2022-09-13T11:44:08.013Z,9396.00
2022-09-13T11:45:08.002Z,9568.00
2022-09-13T11:46:08.040Z,9876.00
2022-09-13T11:47:07.979Z,9956.00
2022-09-13T11:48:08.009Z,9740.00
2022-09-13T11:49:07.956Z,9472.00
2022-09-13T11:50:07.947Z,9796.00
2022-09-13T11:51:07.937Z,8200.00
2022-09-13T11:52:07.926Z,9936.00
2022-09-13T11:53:07.923Z,10096.00
2022-09-13T11:54:07.908Z,6472.00
2022-09-13T11:55:07.889Z,6000.00
2022-09-13T11:56:07.885Z,8472.00
2022-09-13T11:57:07.867Z,7996.00
2022-09-13T11:58:07.872Z,8080.00
2022-09-13T11:59:11.153Z,7428.00
2022-09-13T12:00:08.853Z,5860.00
2022-09-13T12:01:07.831Z,5308.00
2022-09-13T12:02:07.985Z,6528.00
2022-09-13T12:03:08.000Z,7108.00
2022-09-13T12:04:07.816Z,7696.00
2022-09-13T12:05:24.021Z,7224.00
2022-09-13T12:06:08.777Z,7180.00
2022-09-13T12:07:07.759Z,7120.00
2022-09-13T12:08:07.772Z,7000.00
2022-09-13T12:09:07.748Z,6980.00
2022-09-13T12:10:07.747Z,7136.00
2022-09-13T12:11:07.723Z,7148.00
2022-09-13T12:12:07.710Z,6424.00
2022-09-13T12:13:07.713Z,5956.00
2022-09-13T12:14:07.691Z,5152.00
2022-09-13T12:15:07.683Z,5152.00
2022-09-13T12:16:07.741Z,5904.00
2022-09-13T12:17:07.659Z,5736.00
2022-09-13T12:18:07.658Z,6788.00
2022-09-13T12:19:07.640Z,8088.00
2022-09-13T12:20:07.725Z,5376.00
2022-09-13T12:21:07.619Z,5580.00
2022-09-13T12:22:07.600Z,6372.00
2022-09-13T12:23:07.607Z,9496.00
2022-09-13T12:24:07.584Z,7744.00
2022-09-13T12:25:07.577Z,6736.00
2022-09-13T12:26:07.605Z,6984.00
2022-09-13T12:27:07.566Z,6112.00
2022-09-13T12:28:07.574Z,6124.00
2022-09-13T12:29:07.537Z,6268.00
2022-09-13T12:30:07.520Z,6096.00
2022-09-13T12:31:07.515Z,5780.00
2022-09-13T12:32:07.531Z,5120.00
2022-09-13T12:33:07.504Z,4572.00
2022-09-13T12:34:07.481Z,4608.00
2022-09-13T12:35:07.469Z,5152.00
2022-09-13T12:36:07.561Z,5416.00
2022-09-13T12:37:07.450Z,5392.00